sensor_id;sensor_type;location;lat;lon;timestamp;pressure;altitude;pressure_sealevel;temperature
71640;BMP280;60912;48.968;10.124;2023-10-31T00:01:31;94992.03;;;13.22
71640;BMP280;60912;48.968;10.124;2023-10-31T00:03:56;94996.38;;;13.25
71640;BMP280;60912;48.968;10.124;2023-10-31T00:06:22;94999.03;;;13.23
71640;BMP280;60912;48.968;10.124;2023-10-31T00:08:47;95004.19;;;13.17
71640;BMP280;60912;48.968;10.124;2023-10-31T00:11:12;94995.41;;;13.20
71640;BMP280;60912;48.968;10.124;2023-10-31T00:13:38;94985.66;;;13.19
71640;BMP280;60912;48.968;10.124;2023-10-31T00:16:03;94999.09;;;13.02
71640;BMP280;60912;48.968;10.124;2023-10-31T00:18:29;94992.94;;;12.92
71640;BMP280;60912;48.968;10.124;2023-10-31T00:20:54;95001.34;;;12.94
71640;BMP280;60912;48.968;10.124;2023-10-31T00:23:22;95004.59;;;12.90
71640;BMP280;60912;48.968;10.124;2023-10-31T00:25:47;95004.97;;;12.84
71640;BMP280;60912;48.968;10.124;2023-10-31T00:28:13;95009.44;;;12.90
71640;BMP280;60912;48.968;10.124;2023-10-31T00:30:38;95013.13;;;12.94
71640;BMP280;60912;48.968;10.124;2023-10-31T00:33:03;95006.78;;;12.92
71640;BMP280;60912;48.968;10.124;2023-10-31T00:35:29;95013.88;;;12.95
71640;BMP280;60912;48.968;10.124;2023-10-31T00:37:55;95012.03;;;12.76
71640;BMP280;60912;48.968;10.124;2023-10-31T00:40:21;95007.81;;;12.75
71640;BMP280;60912;48.968;10.124;2023-10-31T00:42:46;95010.00;;;12.88
71640;BMP280;60912;48.968;10.124;2023-10-31T00:45:11;95011.09;;;12.83
71640;BMP280;60912;48.968;10.124;2023-10-31T00:47:37;95006.28;;;12.95
71640;BMP280;60912;48.968;10.124;2023-10-31T00:50:02;95015.91;;;12.94
71640;BMP280;60912;48.968;10.124;2023-10-31T00:52:28;95014.22;;;12.89
71640;BMP280;60912;48.968;10.124;2023-10-31T00:54:53;95026.13;;;12.92
71640;BMP280;60912;48.968;10.124;2023-10-31T00:57:18;95018.22;;;12.98
71640;BMP280;60912;48.968;10.124;2023-10-31T00:59:43;95018.66;;;12.94
71640;BMP280;60912;48.968;10.124;2023-10-31T01:02:09;95021.56;;;12.96
71640;BMP280;60912;48.968;10.124;2023-10-31T01:04:36;95027.06;;;12.84
71640;BMP280;60912;48.968;10.124;2023-10-31T01:07:01;95019.81;;;12.79
71640;BMP280;60912;48.968;10.124;2023-10-31T01:09:26;95013.38;;;12.86
71640;BMP280;60912;48.968;10.124;2023-10-31T01:11:51;95010.59;;;12.86
71640;BMP280;60912;48.968;10.124;2023-10-31T01:14:17;95006.38;;;12.85
71640;BMP280;60912;48.968;10.124;2023-10-31T01:16:42;95014.97;;;12.90
71640;BMP280;60912;48.968;10.124;2023-10-31T01:19:07;95013.63;;;12.91
71640;BMP280;60912;48.968;10.124;2023-10-31T01:21:33;95021.81;;;12.88
71640;BMP280;60912;48.968;10.124;2023-10-31T01:23:59;95023.91;;;12.78
71640;BMP280;60912;48.968;10.124;2023-10-31T01:26:24;95020.72;;;12.61
71640;BMP280;60912;48.968;10.124;2023-10-31T01:28:50;95019.25;;;12.48
71640;BMP280;60912;48.968;10.124;2023-10-31T01:31:15;95017.81;;;12.59
71640;BMP280;60912;48.968;10.124;2023-10-31T01:33:41;95024.81;;;12.60
71640;BMP280;60912;48.968;10.124;2023-10-31T01:36:06;95034.66;;;12.51
71640;BMP280;60912;48.968;10.124;2023-10-31T01:38:32;95030.53;;;12.52
71640;BMP280;60912;48.968;10.124;2023-10-31T01:40:57;95037.81;;;12.36
71640;BMP280;60912;48.968;10.124;2023-10-31T01:43:34;95040.03;;;12.28
71640;BMP280;60912;48.968;10.124;2023-10-31T01:46:00;95050.16;;;12.35
71640;BMP280;60912;48.968;10.124;2023-10-31T01:48:28;95046.00;;;12.24
71640;BMP280;60912;48.968;10.124;2023-10-31T01:50:54;95053.63;;;12.14
71640;BMP280;60912;48.968;10.124;2023-10-31T01:53:21;95066.97;;;12.18
71640;BMP280;60912;48.968;10.124;2023-10-31T01:55:47;95070.41;;;12.07
71640;BMP280;60912;48.968;10.124;2023-10-31T01:58:14;95078.13;;;11.98
71640;BMP280;60912;48.968;10.124;2023-10-31T02:00:40;95072.03;;;12.00
71640;BMP280;60912;48.968;10.124;2023-10-31T02:03:08;95076.84;;;12.00
71640;BMP280;60912;48.968;10.124;2023-10-31T02:05:34;95090.50;;;11.97
71640;BMP280;60912;48.968;10.124;2023-10-31T02:08:00;95093.09;;;11.95
71640;BMP280;60912;48.968;10.124;2023-10-31T02:10:26;95092.84;;;11.91
71640;BMP280;60912;48.968;10.124;2023-10-31T02:12:51;95101.03;;;11.80
71640;BMP280;60912;48.968;10.124;2023-10-31T02:15:16;95117.16;;;11.74
71640;BMP280;60912;48.968;10.124;2023-10-31T02:17:42;95122.84;;;11.76
71640;BMP280;60912;48.968;10.124;2023-10-31T02:20:07;95121.69;;;11.69
71640;BMP280;60912;48.968;10.124;2023-10-31T02:22:33;95122.25;;;11.68
71640;BMP280;60912;48.968;10.124;2023-10-31T02:24:58;95127.84;;;11.58
71640;BMP280;60912;48.968;10.124;2023-10-31T02:27:24;95138.25;;;11.69
71640;BMP280;60912;48.968;10.124;2023-10-31T02:29:49;95142.31;;;11.68
71640;BMP280;60912;48.968;10.124;2023-10-31T02:32:14;95149.28;;;11.60
71640;BMP280;60912;48.968;10.124;2023-10-31T02:34:40;95158.31;;;11.60
71640;BMP280;60912;48.968;10.124;2023-10-31T02:37:05;95148.44;;;11.57
71640;BMP280;60912;48.968;10.124;2023-10-31T02:39:30;95148.00;;;11.61
71640;BMP280;60912;48.968;10.124;2023-10-31T02:41:56;95154.38;;;11.53
71640;BMP280;60912;48.968;10.124;2023-10-31T02:44:23;95152.66;;;11.58
71640;BMP280;60912;48.968;10.124;2023-10-31T02:46:48;95147.13;;;11.58
71640;BMP280;60912;48.968;10.124;2023-10-31T02:49:13;95141.28;;;11.64
71640;BMP280;60912;48.968;10.124;2023-10-31T02:51:39;95151.22;;;11.57
71640;BMP280;60912;48.968;10.124;2023-10-31T02:54:04;95155.97;;;11.66
71640;BMP280;60912;48.968;10.124;2023-10-31T02:56:30;95143.19;;;11.51
71640;BMP280;60912;48.968;10.124;2023-10-31T02:58:57;95157.63;;;11.50
71640;BMP280;60912;48.968;10.124;2023-10-31T03:01:23;95149.91;;;11.39
71640;BMP280;60912;48.968;10.124;2023-10-31T03:03:48;95149.91;;;11.39
71640;BMP280;60912;48.968;10.124;2023-10-31T03:06:13;95148.75;;;11.42
71640;BMP280;60912;48.968;10.124;2023-10-31T03:08:39;95160.22;;;11.38
71640;BMP280;60912;48.968;10.124;2023-10-31T03:11:04;95150.06;;;11.50
71640;BMP280;60912;48.968;10.124;2023-10-31T03:13:29;95157.63;;;11.50
71640;BMP280;60912;48.968;10.124;2023-10-31T03:15:55;95154.09;;;11.59
71640;BMP280;60912;48.968;10.124;2023-10-31T03:18:20;95169.34;;;11.60
71640;BMP280;60912;48.968;10.124;2023-10-31T03:20:45;95164.28;;;11.47
71640;BMP280;60912;48.968;10.124;2023-10-31T03:23:12;95165.75;;;11.48
71640;BMP280;60912;48.968;10.124;2023-10-31T03:25:37;95166.88;;;11.54
71640;BMP280;60912;48.968;10.124;2023-10-31T03:28:03;95162.38;;;11.59
71640;BMP280;60912;48.968;10.124;2023-10-31T03:30:30;95164.84;;;11.55
71640;BMP280;60912;48.968;10.124;2023-10-31T03:32:55;95164.13;;;11.54
71640;BMP280;60912;48.968;10.124;2023-10-31T03:35:20;95165.16;;;11.49
71640;BMP280;60912;48.968;10.124;2023-10-31T03:37:46;95171.56;;;11.42
71640;BMP280;60912;48.968;10.124;2023-10-31T03:40:11;95159.47;;;11.57
71640;BMP280;60912;48.968;10.124;2023-10-31T03:42:37;95166.16;;;11.54
71640;BMP280;60912;48.968;10.124;2023-10-31T03:45:02;95168.34;;;11.56
71640;BMP280;60912;48.968;10.124;2023-10-31T03:47:28;95173.56;;;11.61
71640;BMP280;60912;48.968;10.124;2023-10-31T03:49:53;95165.13;;;11.59
71640;BMP280;60912;48.968;10.124;2023-10-31T03:52:18;95175.31;;;11.57
71640;BMP280;60912;48.968;10.124;2023-10-31T03:54:45;95174.72;;;11.58
71640;BMP280;60912;48.968;10.124;2023-10-31T03:57:10;95186.75;;;11.53
71640;BMP280;60912;48.968;10.124;2023-10-31T03:59:37;95175.72;;;11.53
71640;BMP280;60912;48.968;10.124;2023-10-31T04:02:02;95180.38;;;11.60
71640;BMP280;60912;48.968;10.124;2023-10-31T04:04:28;95180.38;;;11.60
71640;BMP280;60912;48.968;10.124;2023-10-31T04:06:53;95181.09;;;11.61
71640;BMP280;60912;48.968;10.124;2023-10-31T04:09:19;95186.47;;;11.59
71640;BMP280;60912;48.968;10.124;2023-10-31T04:11:44;95182.41;;;11.60
71640;BMP280;60912;48.968;10.124;2023-10-31T04:14:10;95182.22;;;11.67
71640;BMP280;60912;48.968;10.124;2023-10-31T04:16:41;95185.56;;;11.75
71640;BMP280;60912;48.968;10.124;2023-10-31T04:19:11;95191.97;;;11.68
71640;BMP280;60912;48.968;10.124;2023-10-31T04:21:37;95182.22;;;11.67
71640;BMP280;60912;48.968;10.124;2023-10-31T04:24:03;95189.09;;;11.66
71640;BMP280;60912;48.968;10.124;2023-10-31T04:26:28;95182.09;;;11.75
71640;BMP280;60912;48.968;10.124;2023-10-31T04:28:54;95185.28;;;11.81
71640;BMP280;60912;48.968;10.124;2023-10-31T04:31:19;95189.03;;;11.85
71640;BMP280;60912;48.968;10.124;2023-10-31T04:33:44;95192.19;;;11.91
71640;BMP280;60912;48.968;10.124;2023-10-31T04:36:10;95192.47;;;11.95
71640;BMP280;60912;48.968;10.124;2023-10-31T04:38:36;95189.88;;;11.97
71640;BMP280;60912;48.968;10.124;2023-10-31T04:41:02;95193.09;;;11.94
71640;BMP280;60912;48.968;10.124;2023-10-31T04:43:28;95194.72;;;11.87
71640;BMP280;60912;48.968;10.124;2023-10-31T04:45:53;95201.66;;;11.88
71640;BMP280;60912;48.968;10.124;2023-10-31T04:48:18;95203.41;;;11.84
71640;BMP280;60912;48.968;10.124;2023-10-31T04:50:44;95194.72;;;11.87
71640;BMP280;60912;48.968;10.124;2023-10-31T04:53:09;95196.75;;;11.87
71640;BMP280;60912;48.968;10.124;2023-10-31T04:55:34;95209.38;;;11.80
71640;BMP280;60912;48.968;10.124;2023-10-31T04:58:00;95207.97;;;11.60
71640;BMP280;60912;48.968;10.124;2023-10-31T05:00:25;95207.22;;;11.60
71640;BMP280;60912;48.968;10.124;2023-10-31T05:02:50;95204.47;;;11.69
71640;BMP280;60912;48.968;10.124;2023-10-31T05:05:16;95206.47;;;11.78
71640;BMP280;60912;48.968;10.124;2023-10-31T05:07:41;95203.16;;;11.61
71640;BMP280;60912;48.968;10.124;2023-10-31T05:10:07;95202.00;;;11.44
71640;BMP280;60912;48.968;10.124;2023-10-31T05:12:32;95202.63;;;11.33
71640;BMP280;60912;48.968;10.124;2023-10-31T05:14:57;95205.94;;;11.32
71640;BMP280;60912;48.968;10.124;2023-10-31T05:17:23;95204.06;;;11.25
71640;BMP280;60912;48.968;10.124;2023-10-31T05:19:48;95202.75;;;11.26
71640;BMP280;60912;48.968;10.124;2023-10-31T05:22:14;95203.03;;;11.30
71640;BMP280;60912;48.968;10.124;2023-10-31T05:24:39;95210.91;;;11.43
71640;BMP280;60912;48.968;10.124;2023-10-31T05:27:05;95204.66;;;11.42
71640;BMP280;60912;48.968;10.124;2023-10-31T05:29:32;95208.56;;;11.49
71640;BMP280;60912;48.968;10.124;2023-10-31T05:31:57;95207.84;;;11.48
71640;BMP280;60912;48.968;10.124;2023-10-31T05:34:23;95211.00;;;11.54
71640;BMP280;60912;48.968;10.124;2023-10-31T05:36:48;95217.28;;;11.36
71640;BMP280;60912;48.968;10.124;2023-10-31T05:39:13;95215.25;;;11.36
71640;BMP280;60912;48.968;10.124;2023-10-31T05:41:40;95219.59;;;11.30
71640;BMP280;60912;48.968;10.124;2023-10-31T05:44:06;95224.22;;;11.18
71640;BMP280;60912;48.968;10.124;2023-10-31T05:46:37;95220.34;;;11.21
71640;BMP280;60912;48.968;10.124;2023-10-31T05:49:03;95234.41;;;11.25
71640;BMP280;60912;48.968;10.124;2023-10-31T05:51:28;95241.34;;;11.26
71640;BMP280;60912;48.968;10.124;2023-10-31T05:53:54;95242.22;;;11.19
71640;BMP280;60912;48.968;10.124;2023-10-31T05:56:20;95249.34;;;11.12
71640;BMP280;60912;48.968;10.124;2023-10-31T05:58:45;95246.13;;;10.96
71640;BMP280;60912;48.968;10.124;2023-10-31T06:01:10;95257.41;;;10.81
71640;BMP280;60912;48.968;10.124;2023-10-31T06:03:36;95256.66;;;10.90
71640;BMP280;60912;48.968;10.124;2023-10-31T06:06:02;95270.50;;;11.00
71640;BMP280;60912;48.968;10.124;2023-10-31T06:08:27;95273.38;;;11.02
71640;BMP280;60912;48.968;10.124;2023-10-31T06:10:55;95272.53;;;11.09
71640;BMP280;60912;48.968;10.124;2023-10-31T06:13:20;95276.47;;;11.16
71640;BMP280;60912;48.968;10.124;2023-10-31T06:15:46;95281.72;;;11.12
71640;BMP280;60912;48.968;10.124;2023-10-31T06:18:11;95278.22;;;11.21
71640;BMP280;60912;48.968;10.124;2023-10-31T06:20:38;95284.78;;;11.25
71640;BMP280;60912;48.968;10.124;2023-10-31T06:23:05;95293.31;;;11.29
71640;BMP280;60912;48.968;10.124;2023-10-31T06:25:30;95304.59;;;11.04
71640;BMP280;60912;48.968;10.124;2023-10-31T06:27:58;95308.34;;;10.99
71640;BMP280;60912;48.968;10.124;2023-10-31T06:30:24;95309.09;;;11.00
71640;BMP280;60912;48.968;10.124;2023-10-31T06:32:53;95307.81;;;11.11
71640;BMP280;60912;48.968;10.124;2023-10-31T06:35:24;95312.03;;;11.12
71640;BMP280;60912;48.968;10.124;2023-10-31T06:37:54;95313.44;;;11.03
71640;BMP280;60912;48.968;10.124;2023-10-31T06:40:20;95315.91;;;11.08
71640;BMP280;60912;48.968;10.124;2023-10-31T06:42:45;95321.28;;;11.16
71640;BMP280;60912;48.968;10.124;2023-10-31T06:45:14;95324.63;;;11.15
71640;BMP280;60912;48.968;10.124;2023-10-31T06:47:39;95327.97;;;11.13
71640;BMP280;60912;48.968;10.124;2023-10-31T06:50:07;95345.94;;;11.14
71640;BMP280;60912;48.968;10.124;2023-10-31T06:52:36;95341.66;;;11.21
71640;BMP280;60912;48.968;10.124;2023-10-31T06:55:02;95351.09;;;11.27
71640;BMP280;60912;48.968;10.124;2023-10-31T06:57:27;95354.72;;;11.20
71640;BMP280;60912;48.968;10.124;2023-10-31T06:59:53;95355.31;;;11.28
71640;BMP280;60912;48.968;10.124;2023-10-31T07:02:18;95361.84;;;11.33
71640;BMP280;60912;48.968;10.124;2023-10-31T07:04:43;95362.31;;;11.48
71640;BMP280;60912;48.968;10.124;2023-10-31T07:07:09;95366.22;;;11.45
71640;BMP280;60912;48.968;10.124;2023-10-31T07:09:34;95362.59;;;11.43
71640;BMP280;60912;48.968;10.124;2023-10-31T07:12:00;95360.41;;;11.51
71640;BMP280;60912;48.968;10.124;2023-10-31T07:14:25;95368.25;;;11.54
71640;BMP280;60912;48.968;10.124;2023-10-31T07:16:50;95368.72;;;11.61
71640;BMP280;60912;48.968;10.124;2023-10-31T07:19:16;95362.91;;;11.66
71640;BMP280;60912;48.968;10.124;2023-10-31T07:21:41;95373.03;;;11.54
71640;BMP280;60912;48.968;10.124;2023-10-31T07:24:07;95376.25;;;11.60
71640;BMP280;60912;48.968;10.124;2023-10-31T07:26:34;95387.75;;;11.66
71640;BMP280;60912;48.968;10.124;2023-10-31T07:29:00;95388.03;;;11.70
71640;BMP280;60912;48.968;10.124;2023-10-31T07:31:25;95396.16;;;11.68
71640;BMP280;60912;48.968;10.124;2023-10-31T07:33:51;95385.00;;;11.76
71640;BMP280;60912;48.968;10.124;2023-10-31T07:36:16;95386.88;;;11.83
71640;BMP280;60912;48.968;10.124;2023-10-31T07:38:41;95383.97;;;11.90
71640;BMP280;60912;48.968;10.124;2023-10-31T07:41:07;95380.63;;;12.02
71640;BMP280;60912;48.968;10.124;2023-10-31T07:43:32;95377.88;;;12.02
71640;BMP280;60912;48.968;10.124;2023-10-31T07:45:58;95378.59;;;11.92
71640;BMP280;60912;48.968;10.124;2023-10-31T07:48:26;95385.69;;;11.76
71640;BMP280;60912;48.968;10.124;2023-10-31T07:50:51;95386.00;;;11.61
71640;BMP280;60912;48.968;10.124;2023-10-31T07:53:17;95386.28;;;11.65
71640;BMP280;60912;48.968;10.124;2023-10-31T07:55:42;95389.50;;;11.71
71640;BMP280;60912;48.968;10.124;2023-10-31T07:58:08;95397.94;;;11.73
71640;BMP280;60912;48.968;10.124;2023-10-31T08:00:34;95406.47;;;11.58
71640;BMP280;60912;48.968;10.124;2023-10-31T08:03:01;95408.66;;;11.69
71640;BMP280;60912;48.968;10.124;2023-10-31T08:05:27;95419.97;;;11.64
71640;BMP280;60912;48.968;10.124;2023-10-31T08:07:52;95425.22;;;11.69
71640;BMP280;60912;48.968;10.124;2023-10-31T08:10:17;95423.00;;;11.68
71640;BMP280;60912;48.968;10.124;2023-10-31T08:12:43;95426.91;;;11.55
71640;BMP280;60912;48.968;10.124;2023-10-31T08:15:09;95429.13;;;11.66
71640;BMP280;60912;48.968;10.124;2023-10-31T08:17:35;95432.47;;;11.74
71640;BMP280;60912;48.968;10.124;2023-10-31T08:20:01;95436.84;;;11.77
71640;BMP280;60912;48.968;10.124;2023-10-31T08:22:28;95437.88;;;11.91
71640;BMP280;60912;48.968;10.124;2023-10-31T08:24:54;95434.53;;;12.03
71640;BMP280;60912;48.968;10.124;2023-10-31T08:27:19;95435.41;;;12.15
71640;BMP280;60912;48.968;10.124;2023-10-31T08:29:48;95436.16;;;12.25
71640;BMP280;60912;48.968;10.124;2023-10-31T08:32:23;95445.72;;;12.24
71640;BMP280;60912;48.968;10.124;2023-10-31T08:34:50;95439.06;;;12.08
71640;BMP280;60912;48.968;10.124;2023-10-31T08:37:15;95447.31;;;12.17
71640;BMP280;60912;48.968;10.124;2023-10-31T08:39:40;95451.41;;;12.26
71640;BMP280;60912;48.968;10.124;2023-10-31T08:42:06;95453.56;;;12.27
71640;BMP280;60912;48.968;10.124;2023-10-31T08:44:32;95443.28;;;12.09
71640;BMP280;60912;48.968;10.124;2023-10-31T08:46:59;95445.72;;;12.14
71640;BMP280;60912;48.968;10.124;2023-10-31T08:49:30;95438.03;;;11.93
71640;BMP280;60912;48.968;10.124;2023-10-31T08:52:10;95449.78;;;11.75
71640;BMP280;60912;48.968;10.124;2023-10-31T08:54:35;95444.53;;;11.69
71640;BMP280;60912;48.968;10.124;2023-10-31T08:57:04;95443.66;;;11.76
71640;BMP280;60912;48.968;10.124;2023-10-31T08:59:32;95456.31;;;11.89
71640;BMP280;60912;48.968;10.124;2023-10-31T09:02:01;95449.66;;;12.21
71640;BMP280;60912;48.968;10.124;2023-10-31T09:04:27;95448.19;;;12.10
71640;BMP280;60912;48.968;10.124;2023-10-31T09:06:52;95456.78;;;12.24
71640;BMP280;60912;48.968;10.124;2023-10-31T09:09:18;95469.13;;;12.61
71640;BMP280;60912;48.968;10.124;2023-10-31T09:11:43;95459.66;;;12.74
71640;BMP280;60912;48.968;10.124;2023-10-31T09:14:09;95453.19;;;12.91
71640;BMP280;60912;48.968;10.124;2023-10-31T09:16:35;95443.38;;;13.09
71640;BMP280;60912;48.968;10.124;2023-10-31T09:19:00;95438.38;;;13.26
71640;BMP280;60912;48.968;10.124;2023-10-31T09:21:25;95437.38;;;13.22
71640;BMP280;60912;48.968;10.124;2023-10-31T09:23:51;95435.81;;;13.09
71640;BMP280;60912;48.968;10.124;2023-10-31T09:26:16;95426.44;;;13.24
71640;BMP280;60912;48.968;10.124;2023-10-31T09:28:43;95434.06;;;13.14
71640;BMP280;60912;48.968;10.124;2023-10-31T09:31:17;95434.31;;;13.18
71640;BMP280;60912;48.968;10.124;2023-10-31T09:33:43;95434.19;;;13.16
71640;BMP280;60912;48.968;10.124;2023-10-31T09:36:12;95428.75;;;13.27
71640;BMP280;60912;48.968;10.124;2023-10-31T09:38:39;95433.66;;;13.39
71640;BMP280;60912;48.968;10.124;2023-10-31T09:41:05;95433.09;;;13.30
71640;BMP280;60912;48.968;10.124;2023-10-31T09:43:31;95437.13;;;13.39
71640;BMP280;60912;48.968;10.124;2023-10-31T09:45:58;95446.84;;;13.50
71640;BMP280;60912;48.968;10.124;2023-10-31T09:48:25;95443.53;;;13.11
71640;BMP280;60912;48.968;10.124;2023-10-31T09:50:51;95449.41;;;12.96
71640;BMP280;60912;48.968;10.124;2023-10-31T09:53:18;95451.03;;;12.89
71640;BMP280;60912;48.968;10.124;2023-10-31T09:55:45;95461.13;;;13.06
71640;BMP280;60912;48.968;10.124;2023-10-31T09:58:11;95453.69;;;13.18
71640;BMP280;60912;48.968;10.124;2023-10-31T10:00:37;95456.19;;;13.14
71640;BMP280;60912;48.968;10.124;2023-10-31T10:03:06;95452.31;;;13.28
71640;BMP280;60912;48.968;10.124;2023-10-31T10:05:34;95464.53;;;13.35
71640;BMP280;60912;48.968;10.124;2023-10-31T10:08:00;95469.03;;;13.40
71640;BMP280;60912;48.968;10.124;2023-10-31T10:10:25;95476.97;;;13.55
71640;BMP280;60912;48.968;10.124;2023-10-31T10:12:52;95481.84;;;13.66
71640;BMP280;60912;48.968;10.124;2023-10-31T10:15:17;95475.22;;;13.81
71640;BMP280;60912;48.968;10.124;2023-10-31T10:17:49;95492.56;;;13.82
71640;BMP280;60912;48.968;10.124;2023-10-31T10:20:15;95495.59;;;13.86
71640;BMP280;60912;48.968;10.124;2023-10-31T10:22:41;95491.88;;;13.71
71640;BMP280;60912;48.968;10.124;2023-10-31T10:25:14;95490.91;;;13.57
71640;BMP280;60912;48.968;10.124;2023-10-31T10:27:46;95491.47;;;13.65
71640;BMP280;60912;48.968;10.124;2023-10-31T10:30:13;95493.41;;;13.63
71640;BMP280;60912;48.968;10.124;2023-10-31T10:32:39;95488.44;;;13.61
71640;BMP280;60912;48.968;10.124;2023-10-31T10:35:07;95494.75;;;13.52
71640;BMP280;60912;48.968;10.124;2023-10-31T10:37:38;95495.47;;;13.22
71640;BMP280;60912;48.968;10.124;2023-10-31T10:40:06;95497.50;;;13.21
71640;BMP280;60912;48.968;10.124;2023-10-31T10:42:33;95501.53;;;13.30
71640;BMP280;60912;48.968;10.124;2023-10-31T10:45:04;95513.78;;;13.58
71640;BMP280;60912;48.968;10.124;2023-10-31T10:47:34;95515.69;;;13.86
71640;BMP280;60912;48.968;10.124;2023-10-31T10:50:01;95515.78;;;13.98
71640;BMP280;60912;48.968;10.124;2023-10-31T10:52:32;95522.25;;;13.91
71640;BMP280;60912;48.968;10.124;2023-10-31T10:55:08;95520.59;;;14.18
71640;BMP280;60912;48.968;10.124;2023-10-31T10:57:38;95520.91;;;14.13
71640;BMP280;60912;48.968;10.124;2023-10-31T11:00:08;95521.00;;;14.03
71640;BMP280;60912;48.968;10.124;2023-10-31T11:02:35;95522.84;;;14.10
71640;BMP280;60912;48.968;10.124;2023-10-31T11:05:04;95526.97;;;14.21
71640;BMP280;60912;48.968;10.124;2023-10-31T11:07:30;95523.94;;;14.38
71640;BMP280;60912;48.968;10.124;2023-10-31T11:09:58;95523.41;;;14.51
71640;BMP280;60912;48.968;10.124;2023-10-31T11:12:27;95523.34;;;14.40
71640;BMP280;60912;48.968;10.124;2023-10-31T11:14:55;95524.72;;;14.29
71640;BMP280;60912;48.968;10.124;2023-10-31T11:17:24;95528.56;;;14.24
71640;BMP280;60912;48.968;10.124;2023-10-31T11:19:52;95535.69;;;14.06
71640;BMP280;60912;48.968;10.124;2023-10-31T11:22:18;95531.22;;;13.70
71640;BMP280;60912;48.968;10.124;2023-10-31T11:24:44;95530.47;;;13.69
71640;BMP280;60912;48.968;10.124;2023-10-31T11:27:09;95529.47;;;13.74
71640;BMP280;60912;48.968;10.124;2023-10-31T11:29:36;95532.47;;;13.78
71640;BMP280;60912;48.968;10.124;2023-10-31T11:32:01;95530.63;;;13.71
71640;BMP280;60912;48.968;10.124;2023-10-31T11:34:28;95537.06;;;13.95
71640;BMP280;60912;48.968;10.124;2023-10-31T11:37:27;95537.41;;;14.11
71640;BMP280;60912;48.968;10.124;2023-10-31T11:40:15;95538.59;;;14.08
71640;BMP280;60912;48.968;10.124;2023-10-31T11:42:41;95541.63;;;13.91
71640;BMP280;60912;48.968;10.124;2023-10-31T11:45:10;95552.00;;;13.80
71640;BMP280;60912;48.968;10.124;2023-10-31T11:47:49;95560.22;;;13.69
71640;BMP280;60912;48.968;10.124;2023-10-31T11:50:15;95555.94;;;13.87
71640;BMP280;60912;48.968;10.124;2023-10-31T11:52:40;95563.06;;;14.11
71640;BMP280;60912;48.968;10.124;2023-10-31T11:55:12;95555.88;;;14.18
71640;BMP280;60912;48.968;10.124;2023-10-31T11:57:39;95560.69;;;14.17
71640;BMP280;60912;48.968;10.124;2023-10-31T12:00:05;95552.31;;;14.27
71640;BMP280;60912;48.968;10.124;2023-10-31T12:02:31;95556.41;;;14.47
71640;BMP280;60912;48.968;10.124;2023-10-31T12:05:09;95560.09;;;14.40
71640;BMP280;60912;48.968;10.124;2023-10-31T12:07:42;95554.16;;;14.34
71640;BMP280;60912;48.968;10.124;2023-10-31T12:10:08;95554.41;;;14.17
71640;BMP280;60912;48.968;10.124;2023-10-31T12:12:34;95552.50;;;14.19
71640;BMP280;60912;48.968;10.124;2023-10-31T12:15:09;95558.69;;;14.08
71640;BMP280;60912;48.968;10.124;2023-10-31T12:17:35;95559.97;;;14.17
71640;BMP280;60912;48.968;10.124;2023-10-31T12:20:08;95558.66;;;14.39
71640;BMP280;60912;48.968;10.124;2023-10-31T12:22:36;95555.94;;;14.51
71640;BMP280;60912;48.968;10.124;2023-10-31T12:25:03;95553.97;;;14.74
71640;BMP280;60912;48.968;10.124;2023-10-31T12:27:48;95547.66;;;15.07
71640;BMP280;60912;48.968;10.124;2023-10-31T12:30:17;95551.34;;;15.44
71640;BMP280;60912;48.968;10.124;2023-10-31T12:32:44;95559.66;;;15.21
71640;BMP280;60912;48.968;10.124;2023-10-31T12:35:14;95558.38;;;14.89
71640;BMP280;60912;48.968;10.124;2023-10-31T12:37:45;95558.25;;;14.54
71640;BMP280;60912;48.968;10.124;2023-10-31T12:40:13;95552.44;;;14.50
71640;BMP280;60912;48.968;10.124;2023-10-31T12:42:39;95559.13;;;14.36
71640;BMP280;60912;48.968;10.124;2023-10-31T12:45:05;95554.31;;;14.36
71640;BMP280;60912;48.968;10.124;2023-10-31T12:47:31;95556.13;;;14.22
71640;BMP280;60912;48.968;10.124;2023-10-31T12:50:08;95552.84;;;14.35
71640;BMP280;60912;48.968;10.124;2023-10-31T12:52:51;95552.63;;;14.43
71640;BMP280;60912;48.968;10.124;2023-10-31T12:55:22;95557.00;;;14.46
71640;BMP280;60912;48.968;10.124;2023-10-31T12:57:48;95554.56;;;14.40
71640;BMP280;60912;48.968;10.124;2023-10-31T13:00:15;95550.75;;;14.24
71640;BMP280;60912;48.968;10.124;2023-10-31T13:02:44;95549.03;;;14.40
71640;BMP280;60912;48.968;10.124;2023-10-31T13:05:10;95547.66;;;14.62
71640;BMP280;60912;48.968;10.124;2023-10-31T13:07:37;95550.94;;;14.70
71640;BMP280;60912;48.968;10.124;2023-10-31T13:10:07;95555.81;;;14.82
71640;BMP280;60912;48.968;10.124;2023-10-31T13:12:35;95552.94;;;14.58
71640;BMP280;60912;48.968;10.124;2023-10-31T13:15:00;95557.63;;;14.56
71640;BMP280;60912;48.968;10.124;2023-10-31T13:17:26;95552.03;;;14.44
71640;BMP280;60912;48.968;10.124;2023-10-31T13:19:52;95566.69;;;14.35
71640;BMP280;60912;48.968;10.124;2023-10-31T13:22:18;95580.44;;;14.12
71640;BMP280;60912;48.968;10.124;2023-10-31T13:24:43;95564.13;;;14.06
71640;BMP280;60912;48.968;10.124;2023-10-31T13:27:09;95568.72;;;13.92
71640;BMP280;60912;48.968;10.124;2023-10-31T13:29:39;95567.47;;;14.05
71640;BMP280;60912;48.968;10.124;2023-10-31T13:32:05;95565.69;;;14.09
71640;BMP280;60912;48.968;10.124;2023-10-31T13:34:30;95562.59;;;13.94
71640;BMP280;60912;48.968;10.124;2023-10-31T13:36:58;95570.78;;;13.82
71640;BMP280;60912;48.968;10.124;2023-10-31T13:39:23;95572.31;;;13.95
71640;BMP280;60912;48.968;10.124;2023-10-31T13:41:48;95572.22;;;13.93
71640;BMP280;60912;48.968;10.124;2023-10-31T13:44:14;95581.34;;;13.74
71640;BMP280;60912;48.968;10.124;2023-10-31T13:46:39;95592.69;;;13.78
71640;BMP280;60912;48.968;10.124;2023-10-31T13:49:05;95599.84;;;13.71
71640;BMP280;60912;48.968;10.124;2023-10-31T13:51:32;95603.94;;;13.70
71640;BMP280;60912;48.968;10.124;2023-10-31T13:54:01;95605.56;;;13.95